createdAt,value
2019-05-10T00:00:23.568Z,99242.19
2019-05-10T00:03:12.813Z,99233.71
2019-05-10T00:06:01.941Z,99231.78
2019-05-10T00:08:47.158Z,99233.34
2019-05-10T00:11:24.530Z,99242.03
2019-05-10T00:14:13.444Z,99248.33
2019-05-10T00:16:45.834Z,99245.98
2019-05-10T00:19:16.439Z,99250.87
2019-05-10T00:21:47.075Z,99243.00
2019-05-10T00:24:17.966Z,99243.07
2019-05-10T00:26:51.165Z,99239.97
2019-05-10T00:29:21.738Z,99244.45
2019-05-10T00:31:52.400Z,99244.38
2019-05-10T00:34:25.690Z,99241.06
2019-05-10T00:36:58.238Z,99241.61
2019-05-10T00:39:28.940Z,99237.38
2019-05-10T00:41:59.622Z,99239.55
2019-05-10T00:44:31.707Z,99237.84
2019-05-10T00:47:04.348Z,99234.52
2019-05-10T00:49:35.378Z,99234.52
2019-05-10T00:52:05.979Z,99235.36
2019-05-10T00:54:38.296Z,99235.48
2019-05-10T00:57:09.370Z,99235.66
2019-05-10T00:59:40.067Z,99227.65
2019-05-10T01:02:10.703Z,99223.65
2019-05-10T01:04:41.385Z,99228.27
2019-05-10T01:07:12.155Z,99225.42
2019-05-10T01:09:42.796Z,99227.05
2019-05-10T01:12:13.370Z,99224.74
2019-05-10T01:14:43.980Z,99214.13
2019-05-10T01:17:15.941Z,99212.64
2019-05-10T01:19:46.788Z,99209.37
2019-05-10T01:22:17.530Z,99218.39
2019-05-10T01:24:48.139Z,99228.59
2019-05-10T01:27:18.771Z,99231.31
2019-05-10T01:29:49.354Z,99223.18
2019-05-10T01:32:21.616Z,99223.20
2019-05-10T01:34:53.559Z,99224.77
2019-05-10T01:37:24.024Z,99233.98
2019-05-10T01:39:55.248Z,99226.19
2019-05-10T01:42:27.405Z,99235.27
2019-05-10T01:44:58.016Z,99231.22
2019-05-10T01:47:30.187Z,99233.27
2019-05-10T01:50:00.728Z,99239.39
2019-05-10T01:52:31.445Z,99243.88
2019-05-10T01:55:08.655Z,99255.39
2019-05-10T01:57:42.113Z,99253.39
2019-05-10T02:00:14.713Z,99251.07
2019-05-10T02:02:45.271Z,99253.75
2019-05-10T02:05:17.665Z,99255.48
2019-05-10T02:07:48.512Z,99261.48
2019-05-10T02:10:19.289Z,99264.68
2019-05-10T02:12:50.578Z,99259.00
2019-05-10T02:15:22.635Z,99252.44
2019-05-10T02:17:56.403Z,99252.80
2019-05-10T02:20:27.112Z,99255.28
2019-05-10T02:22:57.709Z,99261.27
2019-05-10T02:25:28.321Z,99260.65
2019-05-10T02:27:58.933Z,99265.27
2019-05-10T02:30:32.642Z,99263.89
2019-05-10T02:33:04.919Z,99272.50
2019-05-10T02:35:38.145Z,99270.86
2019-05-10T02:38:08.781Z,99280.44
2019-05-10T02:40:39.458Z,99283.41
2019-05-10T02:43:10.152Z,99280.48
2019-05-10T02:45:42.103Z,99284.16
2019-05-10T02:48:12.956Z,99295.96
2019-05-10T02:50:43.629Z,99290.98
2019-05-10T02:53:14.906Z,99301.37
2019-05-10T02:55:45.993Z,99297.02
2019-05-10T02:58:16.654Z,99296.32
2019-05-10T03:00:52.449Z,99298.28
2019-05-10T03:03:26.045Z,99309.42
2019-05-10T03:05:57.647Z,99315.50
2019-05-10T03:08:31.152Z,99305.05
2019-05-10T03:11:01.875Z,99307.48
2019-05-10T03:13:34.920Z,99301.42
2019-05-10T03:16:06.314Z,99311.36
2019-05-10T03:18:38.198Z,99310.89
2019-05-10T03:21:10.954Z,99314.31
2019-05-10T03:23:41.545Z,99314.66
2019-05-10T03:26:12.147Z,99324.41
2019-05-10T03:28:46.208Z,99326.18
2019-05-10T03:31:21.093Z,99332.09
2019-05-10T03:33:56.836Z,99327.59
2019-05-10T03:36:24.509Z,99325.59
2019-05-10T03:38:55.433Z,99330.13
2019-05-10T03:41:26.053Z,99340.01
2019-05-10T03:43:56.696Z,99336.27
2019-05-10T03:46:27.338Z,99332.13
2019-05-10T03:48:57.950Z,99323.30
2019-05-10T03:51:28.573Z,99321.16
2019-05-10T03:54:01.841Z,99328.27
2019-05-10T03:56:33.913Z,99326.31
2019-05-10T03:59:04.562Z,99322.34
2019-05-10T04:01:35.185Z,99333.12
2019-05-10T04:04:09.462Z,99328.60
2019-05-10T04:06:39.212Z,99326.89
2019-05-10T04:09:09.810Z,99329.75
2019-05-10T04:11:40.401Z,99325.40
2019-05-10T04:14:11.122Z,99324.41
2019-05-10T04:16:43.064Z,99331.52
2019-05-10T04:19:13.661Z,99322.73
2019-05-10T04:21:44.359Z,99325.78
2019-05-10T04:24:15.066Z,99330.13
2019-05-10T04:26:45.716Z,99330.39
2019-05-10T04:29:16.376Z,99332.13
2019-05-10T04:31:47.271Z,99323.88
2019-05-10T04:34:17.867Z,99329.15
2019-05-10T04:36:48.528Z,99330.23
2019-05-10T04:39:19.112Z,99330.36
2019-05-10T04:41:49.732Z,99339.54
2019-05-10T04:44:20.436Z,99337.25
2019-05-10T04:46:52.516Z,99341.97
2019-05-10T04:49:23.350Z,99339.84
2019-05-10T04:51:57.995Z,99336.55
2019-05-10T04:54:28.590Z,99341.05
2019-05-10T04:57:01.199Z,99339.11
2019-05-10T04:59:31.904Z,99345.67
2019-05-10T05:02:02.534Z,99352.25
2019-05-10T05:04:34.710Z,99345.83
2019-05-10T05:07:05.924Z,99345.77
2019-05-10T05:09:39.561Z,99340.17
2019-05-10T05:12:13.226Z,99354.06
2019-05-10T05:14:47.115Z,99354.53
2019-05-10T05:17:17.813Z,99358.34
2019-05-10T05:19:49.351Z,99357.00
2019-05-10T05:22:21.600Z,99361.71
2019-05-10T05:24:55.298Z,99366.86
2019-05-10T05:27:25.127Z,99362.14
2019-05-10T05:29:55.929Z,99362.09
2019-05-10T05:32:26.596Z,99364.39
2019-05-10T05:34:57.405Z,99370.11
2019-05-10T05:37:28.007Z,99365.42
2019-05-10T05:39:58.689Z,99365.92
2019-05-10T05:42:34.632Z,99368.75
2019-05-10T05:45:08.500Z,99366.81
2019-05-10T05:47:42.154Z,99368.61
2019-05-10T05:50:12.224Z,99355.72
2019-05-10T05:52:47.013Z,99350.36
2019-05-10T05:55:22.781Z,99345.02
2019-05-10T05:57:59.227Z,99337.05
2019-05-10T06:00:31.518Z,99337.52
2019-05-10T06:03:03.607Z,99336.35
2019-05-10T06:05:38.712Z,99330.78
2019-05-10T06:08:22.960Z,99322.59
2019-05-10T06:10:56.766Z,99313.28
2019-05-10T06:13:23.307Z,99322.46
2019-05-10T06:15:54.236Z,99325.66
2019-05-10T06:18:24.936Z,99336.09
2019-05-10T06:20:55.527Z,99336.30
2019-05-10T06:23:28.994Z,99331.52
2019-05-10T06:25:58.698Z,99329.87
2019-05-10T06:28:57.054Z,99323.27
2019-05-10T06:31:02.152Z,99319.95
2019-05-10T06:33:34.010Z,99321.00
2019-05-10T06:36:05.054Z,99330.82
2019-05-10T06:38:35.987Z,99320.19
2019-05-10T06:41:10.106Z,99317.64
2019-05-10T06:43:39.500Z,99326.83
2019-05-10T06:46:10.749Z,99325.70
2019-05-10T06:48:41.689Z,99327.33
2019-05-10T06:51:12.638Z,99326.70
2019-05-10T06:53:52.171Z,99327.25
2019-05-10T06:56:15.586Z,99311.88
2019-05-10T06:58:46.232Z,99317.65
2019-05-10T07:01:16.872Z,99310.70
2019-05-10T07:03:47.469Z,99319.09
2019-05-10T07:06:18.255Z,99321.23
2019-05-10T07:08:51.883Z,99328.09
2019-05-10T07:11:21.120Z,99335.11
2019-05-10T07:13:53.131Z,99334.30
2019-05-10T07:16:26.032Z,99331.09
2019-05-10T07:19:00.603Z,99324.76
2019-05-10T07:21:29.352Z,99328.58
2019-05-10T07:24:00.086Z,99321.92
2019-05-10T07:26:30.924Z,99322.47
2019-05-10T07:29:01.561Z,99321.47
2019-05-10T07:31:32.178Z,99321.44
2019-05-10T07:34:02.812Z,99329.45
2019-05-10T07:36:33.457Z,99327.41
2019-05-10T07:39:08.414Z,99325.91
2019-05-10T07:41:38.580Z,99324.09
2019-05-10T07:44:10.586Z,99327.94
2019-05-10T07:46:47.135Z,99327.52
2019-05-10T07:49:23.980Z,99324.20
2019-05-10T07:52:02.103Z,99320.20
2019-05-10T07:54:29.141Z,99330.92
2019-05-10T07:57:02.071Z,99325.84
2019-05-10T07:59:49.438Z,99323.70
2019-05-10T08:15:50.914Z,99325.02
2019-05-10T08:18:25.292Z,99320.38
2019-05-10T08:21:01.926Z,99324.07
2019-05-10T08:23:30.849Z,99327.95
2019-05-10T08:26:04.458Z,99317.84
2019-05-10T08:28:37.360Z,99314.70
2019-05-10T08:31:06.270Z,99320.55
2019-05-10T08:33:36.900Z,99312.88
2019-05-10T08:36:07.492Z,99313.45
2019-05-10T08:38:39.560Z,99309.59
2019-05-10T08:41:14.836Z,99319.61
2019-05-10T08:43:43.189Z,99312.94
2019-05-10T08:46:13.987Z,99317.13
2019-05-10T08:48:50.315Z,99317.03
2019-05-10T08:51:16.839Z,99309.71
2019-05-10T08:53:53.504Z,99315.70
2019-05-10T08:56:21.672Z,99320.47
2019-05-10T08:58:53.556Z,99319.77
2019-05-10T09:01:30.133Z,99313.48
2019-05-10T09:04:01.950Z,99321.59
2019-05-10T09:06:29.214Z,99312.65
2019-05-10T09:09:05.965Z,99312.02
2019-05-10T09:11:32.795Z,99311.59
2019-05-10T09:14:04.159Z,99314.11
2019-05-10T09:16:43.549Z,99312.22
2019-05-10T09:19:08.289Z,99312.59
2019-05-10T09:21:41.021Z,99312.86
2019-05-10T09:24:12.811Z,99318.07
2019-05-10T09:26:46.948Z,99316.07
2019-05-10T09:29:16.081Z,99314.45
2019-05-10T09:31:50.699Z,99307.48
2019-05-10T09:34:23.864Z,99302.88
2019-05-10T09:36:53.187Z,99290.81
2019-05-10T09:39:25.264Z,99297.19
2019-05-10T09:41:56.034Z,99296.38
2019-05-10T09:44:26.674Z,99297.80
2019-05-10T09:46:58.440Z,99294.14
2019-05-10T09:49:29.114Z,99283.98
2019-05-10T09:52:04.466Z,99288.32
2019-05-10T09:54:33.691Z,99286.33
2019-05-10T09:57:08.210Z,99282.98
2019-05-10T09:59:38.717Z,99286.41
2019-05-10T10:02:18.128Z,99288.02
2019-05-10T10:04:47.368Z,99287.08
2019-05-10T10:07:19.018Z,99282.08
2019-05-10T10:09:49.967Z,99277.20
2019-05-10T10:12:20.554Z,99270.25
2019-05-10T10:14:51.405Z,99276.48
2019-05-10T10:17:22.013Z,99275.38
2019-05-10T10:19:52.658Z,99278.42
2019-05-10T10:22:23.526Z,99268.63
2019-05-10T10:24:57.029Z,99268.69
2019-05-10T10:27:34.249Z,99266.27
2019-05-10T10:29:58.845Z,99269.22
2019-05-10T10:32:31.354Z,99257.78
2019-05-10T10:35:01.777Z,99256.38
2019-05-10T10:37:32.447Z,99257.55
2019-05-10T10:40:06.030Z,99250.88
2019-05-10T10:42:38.070Z,99256.31
2019-05-10T10:45:09.866Z,99249.31
2019-05-10T10:47:40.479Z,99253.47
2019-05-10T10:50:13.351Z,99245.89
2019-05-10T10:52:43.659Z,99246.09
2019-05-10T10:55:14.568Z,99253.92
2019-05-10T10:57:45.197Z,99247.33
2019-05-10T11:00:23.236Z,99258.05
2019-05-10T11:02:51.946Z,99262.63
2019-05-10T11:05:22.433Z,99251.25
2019-05-10T11:07:53.074Z,99249.94
2019-05-10T11:10:31.633Z,99252.59
2019-05-10T11:13:10.664Z,99245.70
2019-05-10T11:15:36.162Z,99247.77
2019-05-10T11:18:06.945Z,99254.36
2019-05-10T11:20:42.022Z,99246.47
2019-05-10T11:23:10.720Z,99243.19
2019-05-10T11:25:50.045Z,99238.33
2019-05-10T11:28:13.840Z,99236.70
2019-05-10T11:30:44.860Z,99240.62
2019-05-10T11:33:25.992Z,99232.80
2019-05-10T11:35:48.120Z,99225.95
2019-05-10T11:38:21.321Z,99233.97
2019-05-10T11:40:51.899Z,99232.92
2019-05-10T11:43:26.814Z,99231.21
2019-05-10T11:45:54.873Z,99233.34
2019-05-10T11:48:28.940Z,99229.11
2019-05-10T11:50:58.235Z,99229.98
2019-05-10T11:53:31.474Z,99228.47
2019-05-10T11:56:02.012Z,99225.16
2019-05-10T11:59:03.772Z,99221.34
2019-05-10T12:03:38.040Z,99220.08
2019-05-10T12:06:09.697Z,99218.36
2019-05-10T12:08:41.770Z,99214.92
2019-05-10T12:11:27.731Z,99214.30
2019-05-10T12:13:45.366Z,99216.23
2019-05-10T12:21:21.843Z,99203.14
2019-05-10T12:23:56.179Z,99197.40
2019-05-10T12:26:03.776Z,99215.37
2019-05-10T12:26:20.398Z,99211.27
2019-05-10T12:26:27.160Z,99202.63
2019-05-10T12:29:02.652Z,99198.48
2019-05-10T12:31:31.092Z,99201.61
2019-05-10T12:34:09.227Z,99195.32
2019-05-10T12:36:35.617Z,99185.45
2019-05-10T12:39:07.754Z,99181.16
2019-05-10T12:41:44.689Z,99173.13
2019-05-10T12:44:11.726Z,99180.47
2019-05-10T12:46:43.283Z,99173.39
2019-05-10T12:49:14.028Z,99179.07
2019-05-10T12:51:44.694Z,99169.47
2019-05-10T12:54:18.546Z,99174.92
2019-05-10T12:56:47.629Z,99178.34
2019-05-10T12:59:18.307Z,99170.58
2019-05-10T13:01:49.553Z,99175.39
2019-05-10T13:04:23.207Z,99166.04
2019-05-10T13:06:52.480Z,99166.14
2019-05-10T13:09:37.919Z,99165.56
2019-05-10T13:12:03.123Z,99165.30
2019-05-10T13:14:29.321Z,99155.66
2019-05-10T13:17:03.850Z,99158.31
2019-05-10T13:19:32.495Z,99162.16
2019-05-10T13:22:07.367Z,99161.70
2019-05-10T13:24:39.873Z,99164.66
2019-05-10T13:27:10.460Z,99164.50
2019-05-10T13:29:47.045Z,99157.30
2019-05-10T13:32:14.844Z,99153.58
2019-05-10T13:34:45.972Z,99158.66
2019-05-10T13:37:23.069Z,99160.33
2019-05-10T13:39:48.777Z,99152.44
2019-05-10T13:42:19.550Z,99160.31
2019-05-10T13:44:50.145Z,99155.94
2019-05-10T13:47:21.573Z,99149.95
2019-05-10T13:49:55.229Z,99152.66
2019-05-10T13:52:29.757Z,99157.47
2019-05-10T13:54:58.135Z,99147.95
2019-05-10T13:57:28.736Z,99149.59
2019-05-10T14:00:02.305Z,99145.83
2019-05-10T14:02:34.254Z,99143.51
2019-05-10T14:05:04.314Z,99147.18
2019-05-10T14:07:35.070Z,99146.81
2019-05-10T14:10:06.734Z,99154.05
2019-05-10T14:12:37.432Z,99152.97
2019-05-10T14:15:12.976Z,99149.02
2019-05-10T14:17:43.045Z,99154.81
2019-05-10T14:20:25.332Z,99156.45
2019-05-10T14:22:48.530Z,99154.48
2019-05-10T14:25:18.402Z,99148.63
2019-05-10T14:27:50.517Z,99153.09
2019-05-10T14:30:21.135Z,99157.29
2019-05-10T14:32:51.749Z,99156.25
2019-05-10T14:35:24.359Z,99159.44
2019-05-10T14:37:54.703Z,99168.66
2019-05-10T14:40:30.503Z,99167.02
2019-05-10T14:43:02.399Z,99165.69
2019-05-10T14:45:33.714Z,99174.20
2019-05-10T14:48:04.271Z,99176.05
2019-05-10T14:50:37.974Z,99168.48
2019-05-10T14:53:08.703Z,99166.09
2019-05-10T14:55:39.364Z,99170.37
2019-05-10T14:58:10.017Z,99166.09
2019-05-10T15:00:41.342Z,99171.90
2019-05-10T15:03:11.986Z,99165.80
2019-05-10T15:05:42.630Z,99171.51
2019-05-10T15:08:13.242Z,99159.34
2019-05-10T15:10:44.759Z,99166.86
2019-05-10T15:13:19.791Z,99167.14
2019-05-10T15:15:51.851Z,99157.26
2019-05-10T15:18:22.430Z,99165.29
2019-05-10T15:20:53.029Z,99166.52
2019-05-10T15:23:24.002Z,99168.80
2019-05-10T15:25:57.644Z,99165.37
2019-05-10T15:28:27.022Z,99160.31
2019-05-10T15:30:58.730Z,99164.34
2019-05-10T15:33:29.337Z,99157.44
2019-05-10T15:35:59.933Z,99162.95
2019-05-10T15:38:31.030Z,99165.42
2019-05-10T15:41:03.385Z,99161.09
2019-05-10T15:43:34.043Z,99154.00
2019-05-10T15:46:04.698Z,99154.14
2019-05-10T15:48:36.468Z,99158.99
2019-05-10T15:51:11.334Z,99153.76
2019-05-10T15:53:40.107Z,99152.53
2019-05-10T15:56:10.734Z,99153.19
2019-05-10T15:58:42.606Z,99146.42
2019-05-10T16:01:14.782Z,99146.42
2019-05-10T16:03:46.298Z,99143.68
2019-05-10T16:06:17.143Z,99145.16
2019-05-10T16:08:49.505Z,99139.25
2019-05-10T16:11:20.789Z,99138.70
2019-05-10T16:13:54.729Z,99140.72
2019-05-10T16:16:24.528Z,99134.36
2019-05-10T16:18:55.295Z,99136.25
2019-05-10T16:21:25.950Z,99134.83
2019-05-10T16:23:58.559Z,99138.35
2019-05-10T16:26:29.246Z,99137.91
2019-05-10T16:29:02.129Z,99136.89
2019-05-10T16:31:33.363Z,99139.87
2019-05-10T16:34:05.743Z,99138.45
2019-05-10T16:36:36.453Z,99132.78
2019-05-10T16:39:07.746Z,99136.72
2019-05-10T16:41:38.413Z,99136.21
2019-05-10T16:44:12.600Z,99140.73
2019-05-10T16:46:43.420Z,99141.27
2019-05-10T16:49:17.355Z,99140.23
2019-05-10T16:51:49.997Z,99145.38
2019-05-10T16:54:25.349Z,99139.78
2019-05-10T16:56:59.325Z,99136.67
2019-05-10T16:59:29.647Z,99140.27
2019-05-10T17:02:04.453Z,99141.38
2019-05-10T17:04:37.980Z,99142.81
2019-05-10T17:07:06.557Z,99142.09
2019-05-10T17:09:37.159Z,99142.77
2019-05-10T17:12:07.826Z,99145.98
2019-05-10T17:14:38.597Z,99154.52
2019-05-10T17:17:09.329Z,99153.72
2019-05-10T17:19:39.950Z,99151.14
2019-05-10T17:22:10.587Z,99160.41
2019-05-10T17:24:41.209Z,99158.16
2019-05-10T17:27:11.956Z,99161.72
2019-05-10T17:29:44.566Z,99163.00
2019-05-10T17:32:18.553Z,99161.32
2019-05-10T17:34:49.282Z,99162.63
2019-05-10T17:37:20.102Z,99160.39
2019-05-10T17:39:53.611Z,99158.62
2019-05-10T17:42:23.026Z,99163.37
2019-05-10T17:44:55.102Z,99160.73
2019-05-10T17:47:27.151Z,99162.80
2019-05-10T17:49:58.574Z,99165.30
2019-05-10T17:52:29.156Z,99163.77
2019-05-10T17:55:00.362Z,99156.13
2019-05-10T17:57:31.075Z,99157.97
2019-05-10T18:00:01.905Z,99157.97
2019-05-10T18:02:32.503Z,99161.09
2019-05-10T18:05:06.143Z,99156.06
2019-05-10T18:07:35.517Z,99158.05
2019-05-10T18:10:06.815Z,99159.23
2019-05-10T18:12:37.437Z,99154.73
2019-05-10T18:15:10.370Z,99153.66
2019-05-10T18:17:41.224Z,99154.83
2019-05-10T18:20:12.829Z,99159.62
2019-05-10T18:22:45.366Z,99167.63
2019-05-10T18:25:20.372Z,99159.99
2019-05-10T18:27:48.528Z,99163.96
2019-05-10T18:30:19.640Z,99161.33
2019-05-10T18:32:50.510Z,99165.22
2019-05-10T18:35:22.095Z,99154.58
2019-05-10T18:37:53.586Z,99160.09
2019-05-10T18:40:31.824Z,99162.14
2019-05-10T18:43:03.853Z,99158.19
2019-05-10T18:45:30.699Z,99166.43
2019-05-10T18:48:01.791Z,99163.17
2019-05-10T18:50:32.625Z,99162.78
2019-05-10T18:53:05.156Z,99164.42
2019-05-10T18:55:35.820Z,99167.56
2019-05-10T18:58:07.700Z,99163.13
2019-05-10T19:00:40.221Z,99165.42
2019-05-10T19:03:10.604Z,99169.98
2019-05-10T19:05:41.562Z,99172.67
2019-05-10T19:08:12.165Z,99167.93
2019-05-10T19:10:42.783Z,99171.93
2019-05-10T19:13:13.962Z,99172.67
2019-05-10T19:15:46.069Z,99172.18
2019-05-10T19:18:17.734Z,99172.67
2019-05-10T19:20:53.384Z,99176.67
2019-05-10T19:23:23.322Z,99174.25
2019-05-10T19:25:54.156Z,99178.37
2019-05-10T19:28:26.839Z,99173.86
2019-05-10T19:30:58.849Z,99173.83
2019-05-10T19:33:36.208Z,99175.47
2019-05-10T19:36:02.063Z,99173.48
2019-05-10T19:38:32.601Z,99172.05
2019-05-10T19:41:03.341Z,99176.83
2019-05-10T19:43:34.272Z,99176.02
2019-05-10T19:46:04.899Z,99172.70
2019-05-10T19:48:36.932Z,99181.83
2019-05-10T19:51:09.632Z,99182.54
2019-05-10T19:53:42.218Z,99180.02
2019-05-10T19:56:12.416Z,99185.48
2019-05-10T19:58:43.082Z,99182.84
2019-05-10T20:01:14.290Z,99187.03
2019-05-10T20:03:44.843Z,99184.55
2019-05-10T20:06:15.477Z,99188.16
2019-05-10T20:08:46.268Z,99186.11
2019-05-10T20:11:16.925Z,99194.19
2019-05-10T20:13:48.048Z,99199.73
2019-05-10T20:16:20.306Z,99199.08
2019-05-10T20:18:51.039Z,99199.78
2019-05-10T20:21:22.963Z,99197.48
2019-05-10T20:23:53.620Z,99198.31
2019-05-10T20:26:24.886Z,99201.90
2019-05-10T20:28:55.544Z,99199.48
2019-05-10T20:31:26.200Z,99200.20
2019-05-10T20:33:56.810Z,99202.99
2019-05-10T20:36:29.451Z,99202.44
2019-05-10T20:39:00.976Z,99207.47
2019-05-10T20:41:31.826Z,99209.06
2019-05-10T20:44:02.541Z,99213.30
2019-05-10T20:46:33.159Z,99216.84
2019-05-10T20:49:03.898Z,99219.25
2019-05-10T20:51:34.511Z,99221.17
2019-05-10T20:54:05.573Z,99221.58
2019-05-10T20:56:36.173Z,99214.89
2019-05-10T20:59:07.018Z,99222.08
2019-05-10T21:01:37.671Z,99224.02
2019-05-10T21:04:08.393Z,99225.55
2019-05-10T21:06:39.128Z,99230.52
2019-05-10T21:09:09.728Z,99231.18
2019-05-10T21:11:40.373Z,99236.40
2019-05-10T21:14:11.005Z,99243.67
2019-05-10T21:16:42.175Z,99246.09
2019-05-10T21:19:12.825Z,99248.33
2019-05-10T21:21:43.867Z,99260.52
2019-05-10T21:24:14.510Z,99260.75
2019-05-10T21:26:46.009Z,99266.45
2019-05-10T21:29:16.743Z,99262.63
2019-05-10T21:31:47.487Z,99268.09
2019-05-10T21:34:18.165Z,99268.06
2019-05-10T21:36:48.945Z,99273.34
2019-05-10T21:39:19.486Z,99272.66
2019-05-10T21:41:50.736Z,99273.58
2019-05-10T21:44:21.410Z,99271.67
2019-05-10T21:46:53.757Z,99280.38
2019-05-10T21:49:25.000Z,99269.50
2019-05-10T21:51:55.605Z,99274.84
2019-05-10T21:54:29.063Z,99267.17
2019-05-10T21:56:59.655Z,99267.55
2019-05-10T21:59:30.240Z,99265.65
2019-05-10T22:02:01.396Z,99268.17
2019-05-10T22:04:33.474Z,99262.70
2019-05-10T22:07:04.075Z,99267.73
2019-05-10T22:09:34.681Z,99266.97
2019-05-10T22:12:05.970Z,99266.44
2019-05-10T22:14:38.494Z,99259.45
2019-05-10T22:17:11.384Z,99266.72
2019-05-10T22:19:41.805Z,99266.52
2019-05-10T22:22:12.902Z,99269.58
2019-05-10T22:24:43.654Z,99274.93
2019-05-10T22:27:14.280Z,99275.58
2019-05-10T22:29:45.614Z,99276.15
2019-05-10T22:32:17.807Z,99274.93
2019-05-10T22:34:48.438Z,99274.63
2019-05-10T22:37:19.055Z,99273.98
2019-05-10T22:39:52.538Z,99275.43
2019-05-10T22:42:23.299Z,99274.86
2019-05-10T22:44:54.849Z,99276.47
2019-05-10T22:47:25.689Z,99278.58
2019-05-10T22:49:56.269Z,99275.67
2019-05-10T22:52:26.862Z,99283.77
2019-05-10T22:55:00.471Z,99286.33
2019-05-10T22:57:30.584Z,99282.55
2019-05-10T23:00:01.184Z,99277.09
2019-05-10T23:02:34.022Z,99280.22
2019-05-10T23:05:05.961Z,99276.44
2019-05-10T23:07:36.684Z,99282.81
2019-05-10T23:10:07.599Z,99270.98
2019-05-10T23:12:38.421Z,99278.30
2019-05-10T23:15:09.161Z,99274.15
2019-05-10T23:17:39.756Z,99280.52
2019-05-10T23:20:10.456Z,99280.83
2019-05-10T23:22:41.384Z,99273.84
2019-05-10T23:25:12.219Z,99276.20
2019-05-10T23:27:42.842Z,99278.88
2019-05-10T23:30:13.587Z,99282.88
2019-05-10T23:32:46.522Z,99277.02
2019-05-10T23:35:17.111Z,99279.38
2019-05-10T23:37:47.808Z,99270.86
2019-05-10T23:40:18.396Z,99268.69
2019-05-10T23:42:49.071Z,99272.81
2019-05-10T23:45:21.236Z,99272.96
2019-05-10T23:47:51.921Z,99276.70
2019-05-10T23:50:22.549Z,99282.05
2019-05-10T23:52:53.265Z,99285.22
2019-05-10T23:55:24.950Z,99282.55
2019-05-10T23:57:55.585Z,99281.74
